createdAt,value
2022-12-10T00:01:35.779Z,97707.48
2022-12-10T00:04:06.182Z,97701.64
2022-12-10T00:06:37.137Z,97699.42
2022-12-10T00:09:09.109Z,97698.14
2022-12-10T00:11:36.389Z,97699.20
2022-12-10T00:14:03.818Z,97693.57
2022-12-10T00:16:31.701Z,97691.76
2022-12-10T00:18:59.143Z,97690.15
2022-12-10T00:21:31.876Z,97690.71
2022-12-10T00:24:01.163Z,97695.36
2022-12-10T00:26:35.483Z,97697.33
2022-12-10T00:29:06.874Z,97696.06
2022-12-10T00:31:36.973Z,97699.98
2022-12-10T00:34:07.575Z,97702.66
2022-12-10T00:36:42.991Z,97704.37
2022-12-10T00:39:13.062Z,97704.77
2022-12-10T00:41:40.543Z,97712.42
2022-12-10T00:44:08.290Z,97711.79
2022-12-10T00:46:36.267Z,97711.33
2022-12-10T00:49:04.297Z,97715.20
2022-12-10T00:51:32.871Z,97714.73
2022-12-10T00:54:00.713Z,97719.95
2022-12-10T00:56:30.800Z,97718.61
2022-12-10T00:58:58.345Z,97715.57
2022-12-10T01:01:29.859Z,97716.40
2022-12-10T01:03:59.786Z,97716.92
2022-12-10T01:06:29.365Z,97715.54
2022-12-10T01:08:59.790Z,97715.84
2022-12-10T01:11:31.240Z,97717.11
2022-12-10T01:14:00.203Z,97718.09
2022-12-10T01:16:28.314Z,97714.67
2022-12-10T01:18:57.713Z,97713.48
2022-12-10T01:21:27.323Z,97716.52
2022-12-10T01:23:55.434Z,97719.06
2022-12-10T01:26:28.180Z,97723.19
2022-12-10T01:28:56.601Z,97725.40
2022-12-10T01:31:27.164Z,97727.54
2022-12-10T01:33:54.752Z,97727.96
2022-12-10T01:36:34.482Z,97732.49
2022-12-10T01:39:04.952Z,97731.17
2022-12-10T01:41:39.059Z,97731.40
2022-12-10T01:44:09.702Z,97726.18
2022-12-10T01:46:39.794Z,97724.75
2022-12-10T01:49:10.291Z,97718.08
2022-12-10T01:51:41.528Z,97721.45
2022-12-10T01:54:10.514Z,97719.77
2022-12-10T01:56:42.640Z,97715.69
2022-12-10T01:59:13.843Z,97715.37
2022-12-10T02:01:57.583Z,97715.75
2022-12-10T02:04:46.951Z,97716.27
2022-12-10T02:07:36.826Z,97724.02
2022-12-10T02:10:46.635Z,97721.61
2022-12-10T02:13:27.038Z,97723.31
2022-12-10T02:16:14.726Z,97722.15
2022-12-10T02:19:01.389Z,97716.94
2022-12-10T02:21:34.580Z,97718.95
2022-12-10T02:24:07.006Z,97717.59
2022-12-10T02:26:52.577Z,97721.81
2022-12-10T02:29:26.069Z,97725.42
2022-12-10T02:32:01.223Z,97727.35
2022-12-10T02:34:34.238Z,97730.16
2022-12-10T02:37:09.598Z,97730.96
2022-12-10T02:39:42.549Z,97730.92
2022-12-10T02:42:13.507Z,97729.48
2022-12-10T02:44:44.002Z,97733.21
2022-12-10T02:47:13.107Z,97734.06
2022-12-10T02:49:44.204Z,97736.98
2022-12-10T02:52:18.284Z,97738.73
2022-12-10T02:54:48.474Z,97741.08
2022-12-10T02:57:48.575Z,97738.70
2022-12-10T03:00:21.584Z,97734.10
2022-12-10T03:03:23.760Z,97735.52
2022-12-10T03:06:06.917Z,97735.21
2022-12-10T03:08:45.943Z,97740.96
2022-12-10T03:11:23.279Z,97739.09
2022-12-10T03:14:38.980Z,97743.11
2022-12-10T03:17:07.192Z,97739.79
2022-12-10T03:19:38.996Z,97742.73
2022-12-10T03:22:10.415Z,97740.48
2022-12-10T03:24:38.406Z,97739.15
2022-12-10T03:27:09.228Z,97739.84
2022-12-10T03:29:59.613Z,97745.88
2022-12-10T03:32:28.946Z,97740.60
2022-12-10T03:34:58.851Z,97747.52
2022-12-10T03:37:28.746Z,97750.92
2022-12-10T03:39:57.484Z,97753.81
2022-12-10T03:42:25.490Z,97753.09
2022-12-10T03:44:53.406Z,97753.95
2022-12-10T03:47:21.586Z,97758.36
2022-12-10T03:49:48.786Z,97759.42
2022-12-10T03:52:16.662Z,97755.80
2022-12-10T03:54:44.519Z,97758.11
2022-12-10T03:57:11.777Z,97758.05
2022-12-10T03:59:39.346Z,97760.61
2022-12-10T04:02:07.501Z,97761.14
2022-12-10T04:04:34.839Z,97761.94
2022-12-10T04:07:02.284Z,97760.30
2022-12-10T04:09:30.150Z,97761.25
2022-12-10T04:11:59.098Z,97759.81
2022-12-10T04:14:47.356Z,97762.42
2022-12-10T04:17:15.065Z,97762.48
2022-12-10T04:19:43.335Z,97763.42
2022-12-10T04:22:29.584Z,97764.39
2022-12-10T04:25:15.826Z,97764.82
2022-12-10T04:27:43.533Z,97761.66
2022-12-10T04:30:13.016Z,97760.86
2022-12-10T04:32:40.444Z,97762.27
2022-12-10T04:35:08.565Z,97765.56
2022-12-10T04:37:36.591Z,97767.15
2022-12-10T04:40:04.590Z,97767.26
2022-12-10T04:42:32.780Z,97768.16
2022-12-10T04:45:00.374Z,97769.36
2022-12-10T04:47:28.110Z,97769.74
2022-12-10T04:49:55.991Z,97772.17
2022-12-10T04:52:23.620Z,97771.86
2022-12-10T04:54:50.862Z,97777.71
2022-12-10T04:57:18.578Z,97781.64
2022-12-10T04:59:45.861Z,97787.48
2022-12-10T05:02:13.114Z,97793.09
2022-12-10T05:04:41.060Z,97790.31
2022-12-10T05:07:08.596Z,97794.09
2022-12-10T05:09:35.939Z,97792.16
2022-12-10T05:12:04.638Z,97784.98
2022-12-10T05:14:32.087Z,97780.64
2022-12-10T05:16:59.319Z,97780.36
2022-12-10T05:19:27.226Z,97779.38
2022-12-10T05:22:15.052Z,97776.83
2022-12-10T05:24:44.565Z,97779.45
2022-12-10T05:27:12.284Z,97779.23
2022-12-10T05:29:39.506Z,97780.96
2022-12-10T05:32:07.343Z,97780.92
2022-12-10T05:34:34.663Z,97780.91
2022-12-10T05:37:01.874Z,97778.70
2022-12-10T05:39:29.611Z,97778.86
2022-12-10T05:41:56.892Z,97780.77
2022-12-10T05:44:24.161Z,97782.42
2022-12-10T05:46:52.916Z,97780.77
2022-12-10T05:49:20.374Z,97779.39
2022-12-10T05:51:47.681Z,97774.86
2022-12-10T05:54:15.589Z,97775.04
2022-12-10T05:56:42.896Z,97775.82
2022-12-10T05:59:16.084Z,97776.66
2022-12-10T06:01:45.856Z,97780.05
2022-12-10T06:04:13.288Z,97784.27
2022-12-10T06:06:41.360Z,97778.96
2022-12-10T06:09:13.060Z,97781.36
2022-12-10T06:11:40.930Z,97788.13
2022-12-10T06:14:09.905Z,97789.93
2022-12-10T06:16:39.713Z,97789.46
2022-12-10T06:19:06.931Z,97791.98
2022-12-10T06:21:35.106Z,97797.05
2022-12-10T06:24:04.348Z,97798.45
2022-12-10T06:26:31.796Z,97797.91
2022-12-10T06:28:59.151Z,97800.52
2022-12-10T06:31:27.027Z,97800.07
2022-12-10T06:33:55.284Z,97801.98
2022-12-10T06:36:24.295Z,97804.40
2022-12-10T06:38:52.319Z,97804.34
2022-12-10T06:41:21.217Z,97804.02
2022-12-10T06:43:49.136Z,97805.52
2022-12-10T06:46:19.842Z,97803.09
2022-12-10T06:48:47.802Z,97806.00
2022-12-10T06:51:15.209Z,97804.29
2022-12-10T06:53:43.373Z,97806.27
2022-12-10T06:56:16.446Z,97805.31
2022-12-10T06:58:44.862Z,97805.11
2022-12-10T07:01:16.167Z,97806.46
2022-12-10T07:03:44.153Z,97805.46
2022-12-10T07:06:12.742Z,97808.27
2022-12-10T07:08:40.556Z,97812.16
2022-12-10T07:11:11.297Z,97808.63
2022-12-10T07:13:41.905Z,97814.89
2022-12-10T07:16:20.787Z,97810.64
2022-12-10T07:18:52.352Z,97810.04
2022-12-10T07:21:23.611Z,97814.61
2022-12-10T07:23:58.462Z,97817.94
2022-12-10T07:26:28.578Z,97821.55
2022-12-10T07:28:57.059Z,97819.89
2022-12-10T07:31:24.745Z,97816.72
2022-12-10T07:33:54.008Z,97818.89
2022-12-10T07:36:23.318Z,97821.78
2022-12-10T07:38:55.058Z,97829.73
2022-12-10T07:41:24.263Z,97829.82
2022-12-10T07:43:51.623Z,97830.95
2022-12-10T07:46:21.377Z,97832.92
2022-12-10T07:48:50.011Z,97841.41
2022-12-10T07:51:19.203Z,97843.40
2022-12-10T07:53:46.587Z,97845.08
2022-12-10T07:56:14.661Z,97849.10
2022-12-10T07:58:43.952Z,97843.09
2022-12-10T08:01:18.059Z,97839.91
2022-12-10T08:03:45.988Z,97844.83
2022-12-10T08:06:18.483Z,97846.96
2022-12-10T08:08:46.672Z,97845.27
2022-12-10T08:11:15.971Z,97840.20
2022-12-10T08:13:44.300Z,97841.73
2022-12-10T08:16:30.290Z,97842.29
2022-12-10T08:18:59.704Z,97843.73
2022-12-10T08:21:29.924Z,97844.02
2022-12-10T08:23:58.047Z,97844.67
2022-12-10T08:26:32.495Z,97845.77
2022-12-10T08:29:00.086Z,97845.16
2022-12-10T08:31:31.938Z,97840.12
2022-12-10T08:34:04.279Z,97839.85
2022-12-10T08:36:32.320Z,97839.96
2022-12-10T08:38:59.568Z,97839.87
2022-12-10T08:41:27.152Z,97845.27
2022-12-10T08:43:55.371Z,97846.12
2022-12-10T08:46:23.668Z,97846.40
2022-12-10T08:48:53.787Z,97855.27
2022-12-10T08:51:35.282Z,97858.35
2022-12-10T08:54:05.721Z,97859.98
2022-12-10T08:56:34.164Z,97863.10
2022-12-10T08:59:01.718Z,97862.34
2022-12-10T09:01:29.243Z,97863.01
2022-12-10T09:03:56.950Z,97865.13
2022-12-10T09:06:25.158Z,97870.95
2022-12-10T09:08:54.523Z,97867.56
2022-12-10T09:11:34.319Z,97872.90
2022-12-10T09:14:02.899Z,97869.98
2022-12-10T09:16:33.142Z,97876.30
2022-12-10T09:19:01.443Z,97868.96
2022-12-10T09:21:31.024Z,97876.13
2022-12-10T09:24:00.035Z,97876.20
2022-12-10T09:26:27.927Z,97874.52
2022-12-10T09:28:55.666Z,97874.11
2022-12-10T09:31:23.209Z,97875.26
2022-12-10T09:33:52.947Z,97873.47
2022-12-10T09:36:21.883Z,97870.96
2022-12-10T09:38:50.214Z,97863.30
2022-12-10T09:41:55.846Z,97857.70
2022-12-10T09:44:28.026Z,97853.23
2022-12-10T09:47:04.844Z,97852.61
2022-12-10T09:49:41.545Z,97845.83
2022-12-10T09:52:17.348Z,97845.16
2022-12-10T09:54:53.760Z,97841.30
2022-12-10T09:57:28.298Z,97838.06
2022-12-10T09:59:57.097Z,97831.55
2022-12-10T10:02:30.790Z,97831.98
2022-12-10T10:05:08.276Z,97829.66
2022-12-10T10:08:14.256Z,97827.02
2022-12-10T10:10:42.504Z,97820.89
2022-12-10T10:13:09.632Z,97818.05
2022-12-10T10:15:41.057Z,97815.59
2022-12-10T10:18:24.092Z,97815.17
2022-12-10T10:20:52.431Z,97818.06
2022-12-10T10:23:19.958Z,97819.61
2022-12-10T10:25:47.455Z,97820.61
2022-12-10T10:28:20.749Z,97820.10
2022-12-10T10:30:51.004Z,97823.99
2022-12-10T10:33:18.228Z,97826.77
2022-12-10T10:35:48.767Z,97828.64
2022-12-10T10:38:30.660Z,97831.11
2022-12-10T10:41:00.785Z,97830.92
2022-12-10T10:43:45.516Z,97835.81
2022-12-10T10:46:15.439Z,97840.57
2022-12-10T10:48:44.239Z,97842.51
2022-12-10T10:51:12.629Z,97843.80
2022-12-10T10:53:39.954Z,97835.67
2022-12-10T10:56:23.164Z,97835.93
2022-12-10T10:58:53.652Z,97834.40
2022-12-10T11:01:22.522Z,97831.20
2022-12-10T11:03:55.148Z,97832.46
2022-12-10T11:06:23.467Z,97828.77
2022-12-10T11:08:58.883Z,97828.33
2022-12-10T11:11:35.373Z,97822.72
2022-12-10T11:14:21.803Z,97820.48
2022-12-10T11:16:49.547Z,97824.39
2022-12-10T11:19:23.895Z,97824.88
2022-12-10T11:21:51.603Z,97825.89
2022-12-10T11:24:20.581Z,97823.72
2022-12-10T11:27:00.197Z,97815.20
2022-12-10T11:29:50.197Z,97818.12
2022-12-10T11:32:33.827Z,97825.89
2022-12-10T11:35:26.503Z,97838.02
2022-12-10T11:38:13.364Z,97823.65
2022-12-10T11:40:58.552Z,97813.64
2022-12-10T11:44:01.719Z,97814.36
2022-12-10T11:46:38.114Z,97821.40
2022-12-10T11:49:14.648Z,97825.48
2022-12-10T11:51:52.038Z,97828.31
2022-12-10T11:54:38.594Z,97826.83
2022-12-10T11:57:43.945Z,97829.15
2022-12-10T12:00:28.227Z,97826.70
2022-12-10T12:03:32.846Z,97823.72
2022-12-10T12:06:38.170Z,97820.23
2022-12-10T12:09:11.332Z,97818.92
2022-12-10T12:12:16.125Z,97816.74
2022-12-10T12:14:47.381Z,97822.18
2022-12-10T12:17:25.036Z,97824.76
2022-12-10T12:19:59.976Z,97824.61
2022-12-10T12:22:36.925Z,97823.66
2022-12-10T12:25:16.930Z,97822.48
2022-12-10T12:27:51.070Z,97820.23
2022-12-10T12:30:21.428Z,97821.70
2022-12-10T12:33:19.309Z,97821.15
2022-12-10T12:35:58.272Z,97819.63
2022-12-10T12:38:49.793Z,97818.36
2022-12-10T12:41:22.593Z,97825.50
2022-12-10T12:43:50.355Z,97824.86
2022-12-10T12:46:26.661Z,97822.95
2022-12-10T12:49:20.810Z,97820.22
2022-12-10T12:52:20.878Z,97820.17
2022-12-10T12:54:49.929Z,97822.89
2022-12-10T12:57:52.072Z,97818.41
2022-12-10T13:00:23.997Z,97826.23
2022-12-10T13:03:16.539Z,97819.46
2022-12-10T13:05:45.130Z,97815.45
2022-12-10T13:08:18.886Z,97815.02
2022-12-10T13:11:09.485Z,97808.95
2022-12-10T13:13:43.036Z,97805.13
2022-12-10T13:16:50.966Z,97803.61
2022-12-10T13:19:21.060Z,97805.47
2022-12-10T13:21:51.469Z,97809.48
2022-12-10T13:24:23.390Z,97802.94
2022-12-10T13:27:15.463Z,97801.17
2022-12-10T13:29:49.504Z,97805.86
2022-12-10T13:32:23.455Z,97812.61
2022-12-10T13:35:09.839Z,97817.85
2022-12-10T13:37:49.809Z,97824.86
2022-12-10T13:40:57.774Z,97832.85
2022-12-10T13:43:44.175Z,97837.17
2022-12-10T13:46:33.785Z,97838.89
2022-12-10T13:49:07.526Z,97839.45
2022-12-10T13:51:54.515Z,97837.60
2022-12-10T13:54:58.554Z,97845.61
2022-12-10T13:57:47.696Z,97845.15
2022-12-10T14:00:49.301Z,97848.61
2022-12-10T14:03:35.501Z,97856.06
2022-12-10T14:06:09.089Z,97857.76
2022-12-10T14:08:39.806Z,97865.15
2022-12-10T14:11:21.401Z,97863.41
2022-12-10T14:13:55.263Z,97859.33
2022-12-10T14:16:24.535Z,97857.42
2022-12-10T14:19:00.245Z,97855.11
2022-12-10T14:21:33.599Z,97853.79
2022-12-10T14:24:01.273Z,97855.19
2022-12-10T14:26:36.106Z,97860.95
2022-12-10T14:29:33.198Z,97868.46
2022-12-10T14:32:01.079Z,97872.48
2022-12-10T14:34:29.657Z,97877.95
2022-12-10T14:37:02.954Z,97882.19
2022-12-10T14:39:34.365Z,97885.55
2022-12-10T14:42:05.017Z,97882.52
2022-12-10T14:44:38.005Z,97880.49
2022-12-10T14:47:12.968Z,97882.02
2022-12-10T14:49:50.027Z,97885.80
2022-12-10T14:52:21.918Z,97879.95
2022-12-10T14:54:50.907Z,97883.68
2022-12-10T14:57:29.252Z,97882.74
2022-12-10T15:00:18.524Z,97885.70
2022-12-10T15:02:50.830Z,97895.31
2022-12-10T15:05:22.612Z,97900.48
2022-12-10T15:08:05.743Z,97902.49
2022-12-10T15:10:37.889Z,97901.31
2022-12-10T15:13:07.399Z,97898.13
2022-12-10T15:15:37.993Z,97897.04
2022-12-10T15:18:09.024Z,97896.44
2022-12-10T15:20:49.073Z,97893.29
2022-12-10T15:23:29.057Z,97896.98
2022-12-10T15:26:25.849Z,97894.56
2022-12-10T15:29:19.113Z,97891.48
2022-12-10T15:31:55.402Z,97891.48
2022-12-10T15:34:22.979Z,97892.63
2022-12-10T15:37:00.297Z,97897.59
2022-12-10T15:39:32.033Z,97896.67
2022-12-10T15:42:07.671Z,97902.17
2022-12-10T15:44:43.563Z,97903.98
2022-12-10T15:47:25.569Z,97907.75
2022-12-10T15:49:56.739Z,97914.11
2022-12-10T15:52:27.593Z,97914.50
2022-12-10T15:54:57.159Z,97919.36
2022-12-10T15:57:31.847Z,97918.52
2022-12-10T16:00:03.887Z,97913.65
2022-12-10T16:03:03.977Z,97908.24
2022-12-10T16:05:37.284Z,97904.54
2022-12-10T16:08:11.401Z,97903.68
2022-12-10T16:10:39.309Z,97901.35
2022-12-10T16:13:12.398Z,97899.83
2022-12-10T16:15:53.416Z,97900.93
2022-12-10T16:18:21.947Z,97902.30
2022-12-10T16:20:49.812Z,97901.69
2022-12-10T16:23:17.174Z,97899.55
2022-12-10T16:25:46.290Z,97904.34
2022-12-10T16:28:16.902Z,97901.77
2022-12-10T16:30:52.866Z,97905.60
2022-12-10T16:33:25.125Z,97900.73
2022-12-10T16:35:54.457Z,97894.06
2022-12-10T16:38:22.242Z,97893.00
2022-12-10T16:40:50.478Z,97889.14
2022-12-10T16:43:26.639Z,97888.67
2022-12-10T16:45:55.917Z,97890.06
2022-12-10T16:48:23.989Z,97886.02
2022-12-10T16:50:53.668Z,97889.10
2022-12-10T16:53:29.236Z,97889.81
2022-12-10T16:56:00.072Z,97893.78
2022-12-10T16:58:28.123Z,97893.33
2022-12-10T17:00:56.056Z,97894.86
2022-12-10T17:03:29.554Z,97897.81
2022-12-10T17:06:06.769Z,97899.60
2022-12-10T17:08:36.857Z,97902.80
2022-12-10T17:11:36.128Z,97899.69
2022-12-10T17:14:17.314Z,97908.84
2022-12-10T17:16:45.428Z,97914.27
2022-12-10T17:19:23.291Z,97914.17
2022-12-10T17:21:52.016Z,97914.40
2022-12-10T17:24:19.727Z,97916.95
2022-12-10T17:26:49.484Z,97918.33
2022-12-10T17:29:23.933Z,97917.64
2022-12-10T17:31:51.508Z,97922.10
2022-12-10T17:34:22.792Z,97923.05
2022-12-10T17:36:51.970Z,97919.03
2022-12-10T17:39:23.143Z,97918.00
2022-12-10T17:41:53.237Z,97914.82
2022-12-10T17:44:22.613Z,97914.27
2022-12-10T17:46:50.258Z,97917.77
2022-12-10T17:49:18.690Z,97920.66
2022-12-10T17:51:46.725Z,97917.16
2022-12-10T17:54:14.212Z,97916.21
2022-12-10T17:56:44.155Z,97923.07
2022-12-10T17:59:14.716Z,97927.10
2022-12-10T18:01:48.149Z,97929.79
2022-12-10T18:04:35.176Z,97929.32
2022-12-10T18:07:33.132Z,97931.20
2022-12-10T18:10:40.226Z,97934.00
2022-12-10T18:13:33.447Z,97932.88
2022-12-10T18:16:36.440Z,97926.84
2022-12-10T18:19:41.604Z,97923.11
2022-12-10T18:22:44.263Z,97925.35
2022-12-10T18:25:40.738Z,97922.52
2022-12-10T18:28:49.419Z,97924.73
2022-12-10T18:31:53.425Z,97928.96
2022-12-10T18:35:03.346Z,97921.30
2022-12-10T18:38:01.637Z,97911.04
2022-12-10T18:40:53.509Z,97909.83
2022-12-10T18:43:29.047Z,97907.94
2022-12-10T18:45:57.982Z,97918.20
2022-12-10T18:48:27.462Z,97913.89
2022-12-10T18:50:54.899Z,97916.13
2022-12-10T18:53:23.071Z,97921.70
2022-12-10T18:55:54.844Z,97916.66
2022-12-10T18:58:42.092Z,97918.84
2022-12-10T19:01:13.195Z,97925.71
2022-12-10T19:03:46.580Z,97929.65
2022-12-10T19:06:19.128Z,97930.55
2022-12-10T19:09:10.562Z,97929.57
2022-12-10T19:11:59.896Z,97932.21
2022-12-10T19:14:29.990Z,97932.20
2022-12-10T19:16:58.455Z,97924.60
2022-12-10T19:19:25.888Z,97923.48
2022-12-10T19:21:53.688Z,97922.84
2022-12-10T19:24:30.354Z,97922.79
2022-12-10T19:26:59.732Z,97917.94
2022-12-10T19:29:27.476Z,97911.62
2022-12-10T19:32:08.445Z,97905.23
2022-12-10T19:34:46.079Z,97895.27
2022-12-10T19:37:19.506Z,97894.45
2022-12-10T19:39:50.789Z,97894.76
2022-12-10T19:42:27.392Z,97897.52
2022-12-10T19:44:57.902Z,97901.36
2022-12-10T19:47:30.144Z,97900.23
2022-12-10T19:50:34.128Z,97897.30
2022-12-10T19:53:04.930Z,97899.08
2022-12-10T19:55:38.213Z,97916.77
2022-12-10T19:58:06.387Z,97920.27
2022-12-10T20:00:37.464Z,97924.85
2022-12-10T20:03:05.409Z,97925.33
2022-12-10T20:05:33.385Z,97924.02
2022-12-10T20:08:01.425Z,97923.12
2022-12-10T20:10:29.914Z,97931.30
2022-12-10T20:12:57.647Z,97937.11
2022-12-10T20:15:26.041Z,97945.41
2022-12-10T20:17:54.037Z,97939.08
2022-12-10T20:20:27.011Z,97933.05
2022-12-10T20:22:55.730Z,97927.59
2022-12-10T20:25:23.900Z,97923.55
2022-12-10T20:27:55.396Z,97920.73
2022-12-10T20:30:27.619Z,97919.65
2022-12-10T20:32:57.577Z,97916.07
2022-12-10T20:35:32.432Z,97918.46
2022-12-10T20:38:00.517Z,97924.84
2022-12-10T20:40:32.704Z,97923.45
2022-12-10T20:43:04.494Z,97921.73
2022-12-10T20:45:32.093Z,97922.63
2022-12-10T20:48:00.674Z,97925.94
2022-12-10T20:50:29.204Z,97926.11
2022-12-10T20:52:56.612Z,97925.18
2022-12-10T20:55:24.392Z,97924.05
2022-12-10T20:57:53.577Z,97915.98
2022-12-10T21:00:22.994Z,97908.23
2022-12-10T21:02:51.860Z,97906.92
2022-12-10T21:05:21.516Z,97913.60
2022-12-10T21:07:57.139Z,97916.34
2022-12-10T21:10:45.560Z,97916.85
2022-12-10T21:13:12.970Z,97920.23
2022-12-10T21:15:43.464Z,97918.13
2022-12-10T21:18:14.048Z,97923.11
2022-12-10T21:20:47.559Z,97927.91
2022-12-10T21:23:17.712Z,97924.02
2022-12-10T21:25:45.870Z,97917.95
2022-12-10T21:28:13.196Z,97916.47
2022-12-10T21:30:44.614Z,97916.29
2022-12-10T21:33:17.838Z,97920.42
2022-12-10T21:35:49.418Z,97923.86
2022-12-10T21:38:17.668Z,97927.48
2022-12-10T21:40:46.442Z,97928.10
2022-12-10T21:43:21.827Z,97928.24
2022-12-10T21:45:52.526Z,97934.50
2022-12-10T21:48:26.019Z,97938.73
2022-12-10T21:51:02.237Z,97940.05
2022-12-10T21:53:30.309Z,97941.08
2022-12-10T21:56:06.435Z,97937.41
2022-12-10T21:58:39.021Z,97939.98
2022-12-10T22:01:10.917Z,97938.55
2022-12-10T22:03:39.190Z,97935.96
2022-12-10T22:06:08.231Z,97929.69
2022-12-10T22:08:38.018Z,97927.17
2022-12-10T22:11:06.972Z,97918.72
2022-12-10T22:13:34.802Z,97916.02
2022-12-10T22:16:03.969Z,97910.77
2022-12-10T22:18:34.018Z,97911.70
2022-12-10T22:21:02.506Z,97913.69
2022-12-10T22:23:30.540Z,97909.96
2022-12-10T22:26:00.460Z,97909.64
2022-12-10T22:28:28.026Z,97916.06
2022-12-10T22:30:56.339Z,97917.78
2022-12-10T22:33:26.129Z,97917.42
2022-12-10T22:35:53.925Z,97922.64
2022-12-10T22:38:24.127Z,97922.36
2022-12-10T22:40:51.602Z,97924.03
2022-12-10T22:43:49.289Z,97921.59
2022-12-10T22:46:08.137Z,97921.11
2022-12-10T22:48:38.264Z,97919.21
2022-12-10T22:51:07.098Z,97922.17
2022-12-10T22:53:35.610Z,97923.65
2022-12-10T22:56:25.124Z,97917.73
2022-12-10T22:58:53.897Z,97915.50
2022-12-10T23:01:23.969Z,97911.41
2022-12-10T23:03:53.330Z,97912.15
2022-12-10T23:06:22.797Z,97910.33
2022-12-10T23:08:52.010Z,97905.67
2022-12-10T23:11:20.107Z,97910.04
2022-12-10T23:13:48.609Z,97907.79
2022-12-10T23:16:18.059Z,97901.67
2022-12-10T23:18:50.688Z,97903.19
2022-12-10T23:21:25.220Z,97904.20
2022-12-10T23:23:54.228Z,97904.50
2022-12-10T23:26:24.503Z,97908.04
2022-12-10T23:28:54.205Z,97912.42
2022-12-10T23:31:22.200Z,97905.30
2022-12-10T23:33:50.761Z,97898.77
2022-12-10T23:36:18.727Z,97900.05
2022-12-10T23:38:46.933Z,97895.66
2022-12-10T23:41:15.578Z,97902.70
2022-12-10T23:43:43.381Z,97900.20
2022-12-10T23:46:24.573Z,97904.77
2022-12-10T23:49:21.777Z,97903.52
2022-12-10T23:52:49.373Z,97901.13
2022-12-10T23:55:18.078Z,97901.81
2022-12-10T23:57:59.146Z,97893.22
